Time;durP1;ratioP1;P1;durP2;ratioP2;P2;SDS_P1;SDS_P2;PMS_P1;PMS_P2;Temp;Humidity;BMP_temperature;BMP_pressure;BME280_temperature;BME280_humidity;BME280_pressure;Samples;Min_cycle;Max_cycle;Signal;HPM_P1;HPM_P2
2023/12/21 10:21:02;;;;;;;2.70;0.50;;;;;;;;;;5101241;28;20078;-72
2023/12/21 10:25:16;;;;;;;0.30;0.30;;;;;;;;;;5105778;28;20047;-72
2023/12/21 10:29:21;;;;;;;0.63;0.35;;;;;;;;;;5093539;28;20050;-70
2023/12/21 10:45:33;;;;;;;0.52;0.30;;;;;;;;;;5114496;27;20066;-71
2023/12/21 11:01:40;;;;;;;0.47;0.30;;;;;;;;;;5107339;28;20058;-66
2023/12/21 11:09:31;;;;;;;0.57;0.30;;;;;;;;;;5115115;27;20031;-73
2023/12/21 11:13:02;;;;;;;0.47;0.30;;;;;;;;;;5115694;27;20040;-68
2023/12/21 11:15:48;;;;;;;0.32;0.30;;;;;;;;;;5118190;27;20083;-74
2023/12/21 11:18:26;;;;;;;4.73;0.30;;;;;;;;;;5102467;27;20047;-69
2023/12/21 11:21:05;;;;;;;0.90;0.40;;;;;;;;;;5107048;28;20109;-72
2023/12/21 11:23:46;;;;;;;0.70;0.50;;;;;;;;;;5102616;27;20054;-67
2023/12/21 11:26:33;;;;;;;0.50;0.30;;;;;;;;;;5108774;27;20120;-73
2023/12/21 11:29:28;;;;;;;0.40;0.30;;;;;;;;;;5124390;27;20532;-69
2023/12/21 11:32:25;;;;;;;0.68;0.30;;;;;;;;;;5109345;27;20047;-72
2023/12/21 11:35:03;;;;;;;0.30;0.30;;;;;;;;;;5105163;27;20063;-70
2023/12/21 11:37:55;;;;;;;0.77;0.40;;;;;;;;;;5117780;27;20128;-71
2023/12/21 11:40:51;;;;;;;0.52;0.40;;;;;;;;;;5112501;27;20043;-69
2023/12/21 11:43:41;;;;;;;4.40;0.45;;;;;;;;;;5116614;27;20127;-70
2023/12/21 11:46:40;;;;;;;0.88;0.30;;;;;;;;;;5109284;28;20074;-71
2023/12/21 11:49:29;;;;;;;1.85;0.40;;;;;;;;;;5106681;27;20051;-69
2023/12/21 11:52:14;;;;;;;1.27;0.60;;;;;;;;;;5128381;27;20069;-72
2023/12/21 11:55:03;;;;;;;1.15;0.30;;;;;;;;;;5113683;27;20078;-72
2023/12/21 11:57:52;;;;;;;0.85;0.57;;;;;;;;;;5122617;27;20180;-75
2023/12/21 12:00:51;;;;;;;1.83;0.90;;;;;;;;;;5112142;27;20059;-66
2023/12/21 12:03:36;;;;;;;1.20;0.77;;;;;;;;;;5128149;27;20187;-67
2023/12/21 12:06:34;;;;;;;0.68;0.30;;;;;;;;;;5110811;27;20129;-72
2023/12/21 12:09:24;;;;;;;0.60;0.40;;;;;;;;;;5108762;28;20062;-66
2023/12/21 12:12:16;;;;;;;5.82;0.52;;;;;;;;;;5110681;27;20046;-66
2023/12/21 12:15:00;;;;;;;0.68;0.40;;;;;;;;;;5127960;27;20051;-69
2023/12/21 12:17:51;;;;;;;1.10;0.40;;;;;;;;;;5109663;27;20127;-70
2023/12/21 12:20:47;;;;;;;0.85;0.60;;;;;;;;;;5112269;27;20043;-70
2023/12/21 12:23:43;;;;;;;0.35;0.30;;;;;;;;;;5098116;28;20237;-73
2023/12/21 12:26:28;;;;;;;0.77;0.47;;;;;;;;;;5114319;27;20058;-72
2023/12/21 12:29:19;;;;;;;0.57;0.30;;;;;;;;;;5114692;27;20051;-68
2023/12/21 12:32:11;;;;;;;3.60;0.43;;;;;;;;;;5107813;27;20128;-72
2023/12/21 12:39:27;;;;;;;0.93;0.40;;;;;;;;;;5085932;28;20090;-67
2023/12/21 12:42:24;;;;;;;0.47;0.38;;;;;;;;;;5070765;28;20043;-71
2023/12/21 12:45:11;;;;;;;1.17;0.40;;;;;;;;;;5080868;28;20077;-73
2023/12/21 12:48:12;;;;;;;4.20;0.70;;;;;;;;;;5088621;28;20047;-68
2023/12/21 12:51:11;;;;;;;0.75;0.38;;;;;;;;;;5098906;28;20052;-68
2023/12/21 12:54:09;;;;;;;0.43;0.20;;;;;;;;;;5085703;28;20059;-74
2023/12/21 12:56:51;;;;;;;0.82;0.30;;;;;;;;;;5107594;28;20436;-67
2023/12/21 12:59:41;;;;;;;1.50;0.40;;;;;;;;;;5082473;28;21246;-69
2023/12/21 13:02:37;;;;;;;3.30;0.50;;;;;;;;;;5081221;28;20074;-70
2023/12/21 13:05:18;;;;;;;0.75;0.30;;;;;;;;;;5086044;28;20040;-72
2023/12/21 13:28:30;;;;;;;0.30;0.20;;;;;;;;;;5079417;28;20110;-75
2023/12/21 16:03:55;;;;;;;4.55;1.70;;;;;;;;;;5115264;27;20058;-70
2023/12/21 16:07:31;;;;;;;1.92;0.63;;;;;;;;;;5114344;27;20074;-72
2023/12/21 16:10:05;;;;;;;4.45;0.95;;;;;;;;;;5097986;28;20044;-72
2023/12/21 16:12:42;;;;;;;10.57;1.77;;;;;;;;;;5109918;27;20139;-75
2023/12/21 16:15:19;;;;;;;5.78;1.45;;;;;;;;;;5105759;27;20097;-69
2023/12/21 17:39:46;;;;;;;7.22;1.77;;;;;;;;;;5109761;28;20100;-73
2023/12/21 17:42:50;;;;;;;12.18;3.15;;;;;;;;;;5115387;28;20047;-70
2023/12/21 18:06:01;;;;;;;22.20;4.55;;;;;;;;;;5113104;27;20569;-70
2023/12/21 18:10:18;;;;;;;14.20;2.63;;;;;;;;;;5120317;27;20042;-75
2023/12/21 18:14:12;;;;;;;26.75;2.45;;;;;;;;;;5117892;27;20491;-66
2023/12/21 18:57:19;;;;;;;9.60;2.50;;;;;;;;;;5089294;28;20044;-72
2023/12/21 19:08:48;;;;;;;38.35;4.28;;;;;;;;;;5085181;28;20070;-73
2023/12/21 19:13:03;;;;;;;14.77;3.45;;;;;;;;;;5086805;28;20043;-75
2023/12/21 19:36:43;;;;;;;29.63;6.18;;;;;;;;;;5075813;28;20526;-74
2023/12/21 19:40:50;;;;;;;29.25;4.85;;;;;;;;;;5078141;28;20043;-69
2023/12/21 19:52:33;;;;;;;18.42;3.80;;;;;;;;;;5098731;27;20187;-72
2023/12/21 21:46:17;;;;;;;20.85;4.45;;;;;;;;;;5097765;28;20070;-67
2023/12/21 21:50:22;;;;;;;14.80;2.90;;;;;;;;;;5101496;28;20248;-68
2023/12/21 22:02:26;;;;;;;9.57;2.65;;;;;;;;;;5096536;28;20893;-69
